sensor_id;sensor_type;location;lat;lon;timestamp;pressure;altitude;pressure_sealevel;temperature
51149;BMP280;37210;50.058;8.688;2022-11-20T00:01:30;99821.34;;;3.75
51149;BMP280;37210;50.058;8.688;2022-11-20T00:03:59;99777.31;;;3.74
51149;BMP280;37210;50.058;8.688;2022-11-20T00:06:27;99829.34;;;3.89
51149;BMP280;37210;50.058;8.688;2022-11-20T00:08:56;99834.47;;;3.44
51149;BMP280;37210;50.058;8.688;2022-11-20T00:11:27;99830.94;;;3.82
51149;BMP280;37210;50.058;8.688;2022-11-20T00:13:59;99843.59;;;4.11
51149;BMP280;37210;50.058;8.688;2022-11-20T00:16:30;99843.72;;;4.17
51149;BMP280;37210;50.058;8.688;2022-11-20T00:19:01;99850.34;;;4.02
51149;BMP280;37210;50.058;8.688;2022-11-20T00:21:29;99770.34;;;3.70
51149;BMP280;37210;50.058;8.688;2022-11-20T00:23:57;99843.50;;;4.06
51149;BMP280;37210;50.058;8.688;2022-11-20T00:26:26;99834.97;;;4.12
51149;BMP280;37210;50.058;8.688;2022-11-20T00:28:57;99833.06;;;4.03
51149;BMP280;37210;50.058;8.688;2022-11-20T00:31:27;99842.84;;;4.18
51149;BMP280;37210;50.058;8.688;2022-11-20T00:33:55;99837.56;;;4.12
51149;BMP280;37210;50.058;8.688;2022-11-20T00:36:24;99819.28;;;4.02
51149;BMP280;37210;50.058;8.688;2022-11-20T00:38:53;99811.56;;;4.04
51149;BMP280;37210;50.058;8.688;2022-11-20T00:41:23;99814.25;;;4.10
51149;BMP280;37210;50.058;8.688;2022-11-20T00:43:52;99830.06;;;3.82
51149;BMP280;37210;50.058;8.688;2022-11-20T00:46:22;99792.56;;;3.60
51149;BMP280;37210;50.058;8.688;2022-11-20T00:48:51;99746.06;;;3.21
51149;BMP280;37210;50.058;8.688;2022-11-20T00:51:20;99797.72;;;3.59
51149;BMP280;37210;50.058;8.688;2022-11-20T00:53:49;99817.22;;;3.45
51149;BMP280;37210;50.058;8.688;2022-11-20T00:56:18;99812.28;;;3.98
51149;BMP280;37210;50.058;8.688;2022-11-20T00:58:47;99819.13;;;3.53
51149;BMP280;37210;50.058;8.688;2022-11-20T01:01:17;99814.75;;;3.92
51149;BMP280;37210;50.058;8.688;2022-11-20T01:03:49;99764.56;;;3.83
51149;BMP280;37210;50.058;8.688;2022-11-20T01:06:20;99811.84;;;4.19
51149;BMP280;37210;50.058;8.688;2022-11-20T01:08:50;99820.69;;;4.32
51149;BMP280;37210;50.058;8.688;2022-11-20T01:11:21;99810.25;;;4.27
51149;BMP280;37210;50.058;8.688;2022-11-20T01:13:51;99812.84;;;4.27
51149;BMP280;37210;50.058;8.688;2022-11-20T01:16:23;99762.38;;;4.04
51149;BMP280;37210;50.058;8.688;2022-11-20T01:18:55;99813.03;;;3.50
51149;BMP280;37210;50.058;8.688;2022-11-20T01:21:25;99803.28;;;3.80
51149;BMP280;37210;50.058;8.688;2022-11-20T01:23:54;99808.22;;;4.11
51149;BMP280;37210;50.058;8.688;2022-11-20T01:26:23;99800.22;;;3.99
51149;BMP280;37210;50.058;8.688;2022-11-20T01:28:53;99794.91;;;3.90
51149;BMP280;37210;50.058;8.688;2022-11-20T01:31:24;99829.00;;;4.14
51149;BMP280;37210;50.058;8.688;2022-11-20T01:33:55;99809.06;;;4.10
51149;BMP280;37210;50.058;8.688;2022-11-20T01:36:25;99825.28;;;4.01
51149;BMP280;37210;50.058;8.688;2022-11-20T01:38:55;99786.25;;;3.88
51149;BMP280;37210;50.058;8.688;2022-11-20T01:41:25;99772.44;;;3.89
51149;BMP280;37210;50.058;8.688;2022-11-20T01:44:12;99812.97;;;4.33
51149;BMP280;37210;50.058;8.688;2022-11-20T01:46:50;99818.81;;;4.23
51149;BMP280;37210;50.058;8.688;2022-11-20T01:49:25;99810.97;;;4.20
51149;BMP280;37210;50.058;8.688;2022-11-20T01:51:59;99797.13;;;4.17
51149;BMP280;37210;50.058;8.688;2022-11-20T01:54:36;99805.69;;;4.14
51149;BMP280;37210;50.058;8.688;2022-11-20T01:57:10;99790.84;;;4.04
51149;BMP280;37210;50.058;8.688;2022-11-20T01:59:42;99790.28;;;4.22
51149;BMP280;37210;50.058;8.688;2022-11-20T02:02:12;99726.25;;;3.62
51149;BMP280;37210;50.058;8.688;2022-11-20T02:04:40;99801.53;;;4.24
51149;BMP280;37210;50.058;8.688;2022-11-20T02:07:08;99786.00;;;4.22
51149;BMP280;37210;50.058;8.688;2022-11-20T02:09:36;99791.09;;;4.18
51149;BMP280;37210;50.058;8.688;2022-11-20T02:12:03;99799.13;;;4.31
51149;BMP280;37210;50.058;8.688;2022-11-20T02:14:51;99797.13;;;4.18
51149;BMP280;37210;50.058;8.688;2022-11-20T02:17:18;99774.44;;;4.03
51149;BMP280;37210;50.058;8.688;2022-11-20T02:19:47;99782.31;;;4.10
51149;BMP280;37210;50.058;8.688;2022-11-20T02:22:19;99798.75;;;4.13
51149;BMP280;37210;50.058;8.688;2022-11-20T02:24:55;99793.06;;;4.31
51149;BMP280;37210;50.058;8.688;2022-11-20T02:27:24;99762.41;;;4.07
51149;BMP280;37210;50.058;8.688;2022-11-20T02:29:56;99780.63;;;4.12
51149;BMP280;37210;50.058;8.688;2022-11-20T02:32:29;99791.16;;;4.21
51149;BMP280;37210;50.058;8.688;2022-11-20T02:34:57;99789.50;;;4.26
51149;BMP280;37210;50.058;8.688;2022-11-20T02:37:29;99776.47;;;4.20
51149;BMP280;37210;50.058;8.688;2022-11-20T02:40:01;99731.66;;;3.76
51149;BMP280;37210;50.058;8.688;2022-11-20T02:42:28;99782.97;;;3.98
51149;BMP280;37210;50.058;8.688;2022-11-20T02:44:57;99774.03;;;3.82
51149;BMP280;37210;50.058;8.688;2022-11-20T02:47:24;99762.69;;;3.76
51149;BMP280;37210;50.058;8.688;2022-11-20T02:49:51;99776.06;;;3.98
51149;BMP280;37210;50.058;8.688;2022-11-20T02:52:19;99766.78;;;4.10
51149;BMP280;37210;50.058;8.688;2022-11-20T02:54:46;99764.97;;;4.02
51149;BMP280;37210;50.058;8.688;2022-11-20T02:57:15;99789.38;;;4.18
51149;BMP280;37210;50.058;8.688;2022-11-20T02:59:43;99784.06;;;4.11
51149;BMP280;37210;50.058;8.688;2022-11-20T03:02:10;99795.72;;;4.34
51149;BMP280;37210;50.058;8.688;2022-11-20T03:04:37;99783.44;;;4.24
51149;BMP280;37210;50.058;8.688;2022-11-20T03:07:05;99782.78;;;4.34
51149;BMP280;37210;50.058;8.688;2022-11-20T03:09:32;99732.06;;;3.97
51149;BMP280;37210;50.058;8.688;2022-11-20T03:12:00;99794.81;;;3.87
51149;BMP280;37210;50.058;8.688;2022-11-20T03:14:29;99785.06;;;4.17
51149;BMP280;37210;50.058;8.688;2022-11-20T03:16:56;99764.03;;;4.00
51149;BMP280;37210;50.058;8.688;2022-11-20T03:19:25;99777.81;;;3.98
51149;BMP280;37210;50.058;8.688;2022-11-20T03:21:53;99780.78;;;4.19
51149;BMP280;37210;50.058;8.688;2022-11-20T03:24:20;99775.41;;;4.09
51149;BMP280;37210;50.058;8.688;2022-11-20T03:26:47;99784.16;;;4.15
51149;BMP280;37210;50.058;8.688;2022-11-20T03:29:15;99754.69;;;3.62
51149;BMP280;37210;50.058;8.688;2022-11-20T03:31:46;99762.78;;;3.80
51149;BMP280;37210;50.058;8.688;2022-11-20T03:34:13;99775.34;;;4.05
51149;BMP280;37210;50.058;8.688;2022-11-20T03:36:42;99764.22;;;4.11
51149;BMP280;37210;50.058;8.688;2022-11-20T03:39:10;99763.38;;;4.12
51149;BMP280;37210;50.058;8.688;2022-11-20T03:41:38;99779.03;;;4.20
51149;BMP280;37210;50.058;8.688;2022-11-20T03:44:10;99785.06;;;4.17
51149;BMP280;37210;50.058;8.688;2022-11-20T03:46:38;99779.00;;;4.15
51149;BMP280;37210;50.058;8.688;2022-11-20T03:49:07;99779.81;;;4.14
51149;BMP280;37210;50.058;8.688;2022-11-20T03:51:35;99746.66;;;3.92
51149;BMP280;37210;50.058;8.688;2022-11-20T03:54:05;99774.91;;;3.81
51149;BMP280;37210;50.058;8.688;2022-11-20T03:56:36;99783.88;;;4.00
51149;BMP280;37210;50.058;8.688;2022-11-20T03:59:11;99779.75;;;4.11
51149;BMP280;37210;50.058;8.688;2022-11-20T04:01:38;99761.44;;;4.00
51149;BMP280;37210;50.058;8.688;2022-11-20T04:04:08;99720.06;;;3.56
51149;BMP280;37210;50.058;8.688;2022-11-20T04:06:38;99755.06;;;3.40
51149;BMP280;37210;50.058;8.688;2022-11-20T04:09:06;99752.22;;;3.70
51149;BMP280;37210;50.058;8.688;2022-11-20T04:11:35;99771.34;;;3.76
51149;BMP280;37210;50.058;8.688;2022-11-20T04:14:06;99786.38;;;3.97
51149;BMP280;37210;50.058;8.688;2022-11-20T04:16:39;99758.22;;;3.67
51149;BMP280;37210;50.058;8.688;2022-11-20T04:19:12;99758.63;;;3.45
51149;BMP280;37210;50.058;8.688;2022-11-20T04:21:40;99778.09;;;3.70
51149;BMP280;37210;50.058;8.688;2022-11-20T04:24:08;99773.34;;;3.92
51149;BMP280;37210;50.058;8.688;2022-11-20T04:26:37;99706.53;;;3.69
51149;BMP280;37210;50.058;8.688;2022-11-20T04:29:04;99762.53;;;4.13
51149;BMP280;37210;50.058;8.688;2022-11-20T04:31:33;99766.88;;;4.14
51149;BMP280;37210;50.058;8.688;2022-11-20T04:34:02;99760.19;;;3.80
51149;BMP280;37210;50.058;8.688;2022-11-20T04:36:33;99761.13;;;3.84
51149;BMP280;37210;50.058;8.688;2022-11-20T04:39:03;99710.84;;;3.70
51149;BMP280;37210;50.058;8.688;2022-11-20T04:41:34;99765.41;;;3.82
51149;BMP280;37210;50.058;8.688;2022-11-20T04:44:04;99717.75;;;3.28
51149;BMP280;37210;50.058;8.688;2022-11-20T04:46:34;99750.28;;;3.16
51149;BMP280;37210;50.058;8.688;2022-11-20T04:49:03;99729.63;;;3.16
51149;BMP280;37210;50.058;8.688;2022-11-20T04:51:32;99763.47;;;3.30
51149;BMP280;37210;50.058;8.688;2022-11-20T04:54:00;99719.75;;;3.41
51149;BMP280;37210;50.058;8.688;2022-11-20T04:56:28;99745.34;;;3.27
51149;BMP280;37210;50.058;8.688;2022-11-20T04:58:55;99746.06;;;3.21
51149;BMP280;37210;50.058;8.688;2022-11-20T05:01:27;99760.94;;;2.93
51149;BMP280;37210;50.058;8.688;2022-11-20T05:03:54;99735.41;;;3.47
51149;BMP280;37210;50.058;8.688;2022-11-20T05:06:22;99749.88;;;3.82
51149;BMP280;37210;50.058;8.688;2022-11-20T05:08:51;99737.19;;;3.94
51149;BMP280;37210;50.058;8.688;2022-11-20T05:11:20;99754.94;;;3.76
51149;BMP280;37210;50.058;8.688;2022-11-20T05:13:49;99753.53;;;3.93
51149;BMP280;37210;50.058;8.688;2022-11-20T05:16:19;99572.28;;;2.88
51149;BMP280;37210;50.058;8.688;2022-11-20T05:18:49;99750.28;;;4.03
51149;BMP280;37210;50.058;8.688;2022-11-20T05:21:17;99756.22;;;3.97
51149;BMP280;37210;50.058;8.688;2022-11-20T05:23:46;99697.28;;;3.81
51149;BMP280;37210;50.058;8.688;2022-11-20T05:26:17;99705.88;;;3.80
51149;BMP280;37210;50.058;8.688;2022-11-20T05:28:50;99753.31;;;4.27
51149;BMP280;37210;50.058;8.688;2022-11-20T05:31:24;99742.81;;;4.20
51149;BMP280;37210;50.058;8.688;2022-11-20T05:33:53;99735.19;;;4.27
51149;BMP280;37210;50.058;8.688;2022-11-20T05:36:22;99735.63;;;4.03
51149;BMP280;37210;50.058;8.688;2022-11-20T05:38:54;99581.66;;;3.27
51149;BMP280;37210;50.058;8.688;2022-11-20T05:41:23;99731.53;;;4.15
51149;BMP280;37210;50.058;8.688;2022-11-20T05:43:55;99730.75;;;4.22
51149;BMP280;37210;50.058;8.688;2022-11-20T05:46:24;99752.22;;;4.15
51149;BMP280;37210;50.058;8.688;2022-11-20T05:48:52;99672.09;;;3.71
51149;BMP280;37210;50.058;8.688;2022-11-20T05:51:20;99753.22;;;4.21
51149;BMP280;37210;50.058;8.688;2022-11-20T05:53:48;99740.31;;;4.24
51149;BMP280;37210;50.058;8.688;2022-11-20T05:56:19;99689.38;;;3.74
51149;BMP280;37210;50.058;8.688;2022-11-20T05:58:51;99708.03;;;4.04
51149;BMP280;37210;50.058;8.688;2022-11-20T06:01:21;99729.94;;;4.24
51149;BMP280;37210;50.058;8.688;2022-11-20T06:03:50;99737.88;;;4.33
51149;BMP280;37210;50.058;8.688;2022-11-20T06:06:20;99738.84;;;4.40
51149;BMP280;37210;50.058;8.688;2022-11-20T06:08:49;99743.66;;;4.19
51149;BMP280;37210;50.058;8.688;2022-11-20T06:11:20;99748.75;;;4.14
51149;BMP280;37210;50.058;8.688;2022-11-20T06:13:56;99739.41;;;4.22
51149;BMP280;37210;50.058;8.688;2022-11-20T06:16:25;99747.00;;;4.13
51149;BMP280;37210;50.058;8.688;2022-11-20T06:18:53;99746.97;;;4.12
51149;BMP280;37210;50.058;8.688;2022-11-20T06:21:22;99747.13;;;4.19
51149;BMP280;37210;50.058;8.688;2022-11-20T06:23:52;99748.13;;;4.27
51149;BMP280;37210;50.058;8.688;2022-11-20T06:26:22;99735.41;;;4.39
51149;BMP280;37210;50.058;8.688;2022-11-20T06:28:51;99641.03;;;3.70
51149;BMP280;37210;50.058;8.688;2022-11-20T06:31:24;99718.59;;;4.15
51149;BMP280;37210;50.058;8.688;2022-11-20T06:33:53;99736.97;;;4.31
51149;BMP280;37210;50.058;8.688;2022-11-20T06:36:25;99705.19;;;3.89
51149;BMP280;37210;50.058;8.688;2022-11-20T06:38:54;99743.00;;;4.30
51149;BMP280;37210;50.058;8.688;2022-11-20T06:41:22;99682.78;;;3.89
51149;BMP280;37210;50.058;8.688;2022-11-20T06:43:55;99745.53;;;4.27
51149;BMP280;37210;50.058;8.688;2022-11-20T06:46:29;99691.53;;;3.96
51149;BMP280;37210;50.058;8.688;2022-11-20T06:48:58;99756.84;;;4.32
51149;BMP280;37210;50.058;8.688;2022-11-20T06:51:27;99718.47;;;4.09
51149;BMP280;37210;50.058;8.688;2022-11-20T06:53:56;99708.16;;;3.64
51149;BMP280;37210;50.058;8.688;2022-11-20T06:56:28;99751.34;;;3.69
51149;BMP280;37210;50.058;8.688;2022-11-20T06:58:56;99716.44;;;3.91
51149;BMP280;37210;50.058;8.688;2022-11-20T07:01:44;99640.75;;;3.55
51149;BMP280;37210;50.058;8.688;2022-11-20T07:04:12;99642.19;;;3.38
51149;BMP280;37210;50.058;8.688;2022-11-20T07:06:43;99757.41;;;4.15
51149;BMP280;37210;50.058;8.688;2022-11-20T07:09:11;99705.16;;;3.43
51149;BMP280;37210;50.058;8.688;2022-11-20T07:11:39;99758.91;;;4.03
51149;BMP280;37210;50.058;8.688;2022-11-20T07:14:07;99760.69;;;4.04
51149;BMP280;37210;50.058;8.688;2022-11-20T07:16:37;99605.91;;;3.35
51149;BMP280;37210;50.058;8.688;2022-11-20T07:19:07;99763.63;;;4.26
51149;BMP280;37210;50.058;8.688;2022-11-20T07:21:38;99752.03;;;4.04
51149;BMP280;37210;50.058;8.688;2022-11-20T07:24:06;99757.06;;;3.96
51149;BMP280;37210;50.058;8.688;2022-11-20T07:26:35;99766.16;;;4.21
51149;BMP280;37210;50.058;8.688;2022-11-20T07:29:06;99759.31;;;4.25
51149;BMP280;37210;50.058;8.688;2022-11-20T07:31:36;99712.13;;;3.91
51149;BMP280;37210;50.058;8.688;2022-11-20T07:34:04;99754.81;;;4.15
51149;BMP280;37210;50.058;8.688;2022-11-20T07:36:33;99712.88;;;3.86
51149;BMP280;37210;50.058;8.688;2022-11-20T07:39:01;99755.69;;;4.15
51149;BMP280;37210;50.058;8.688;2022-11-20T07:41:30;99761.09;;;4.29
51149;BMP280;37210;50.058;8.688;2022-11-20T07:44:00;99687.06;;;3.89
51149;BMP280;37210;50.058;8.688;2022-11-20T07:46:28;99503.66;;;2.99
51149;BMP280;37210;50.058;8.688;2022-11-20T07:48:56;99745.84;;;4.45
51149;BMP280;37210;50.058;8.688;2022-11-20T07:51:25;99679.56;;;4.02
51149;BMP280;37210;50.058;8.688;2022-11-20T07:53:57;99716.22;;;4.28
51149;BMP280;37210;50.058;8.688;2022-11-20T07:56:26;99750.47;;;4.64
51149;BMP280;37210;50.058;8.688;2022-11-20T07:58:54;99706.84;;;4.35
51149;BMP280;37210;50.058;8.688;2022-11-20T08:01:23;99722.44;;;4.39
51149;BMP280;37210;50.058;8.688;2022-11-20T08:03:54;99760.75;;;4.60
51149;BMP280;37210;50.058;8.688;2022-11-20T08:06:22;99766.19;;;4.76
51149;BMP280;37210;50.058;8.688;2022-11-20T08:08:51;99769.69;;;4.78
51149;BMP280;37210;50.058;8.688;2022-11-20T08:11:21;99772.25;;;4.77
51149;BMP280;37210;50.058;8.688;2022-11-20T08:14:07;99616.34;;;3.88
51149;BMP280;37210;50.058;8.688;2022-11-20T08:16:43;99772.38;;;4.86
51149;BMP280;37210;50.058;8.688;2022-11-20T08:19:14;99678.25;;;4.29
51149;BMP280;37210;50.058;8.688;2022-11-20T08:21:47;99771.63;;;4.93
51149;BMP280;37210;50.058;8.688;2022-11-20T08:24:18;99682.66;;;4.34
51149;BMP280;37210;50.058;8.688;2022-11-20T08:26:47;99702.81;;;4.52
51149;BMP280;37210;50.058;8.688;2022-11-20T08:29:15;99776.09;;;5.02
51149;BMP280;37210;50.058;8.688;2022-11-20T08:31:44;99634.25;;;4.29
51149;BMP280;37210;50.058;8.688;2022-11-20T08:34:12;99739.56;;;4.86
51149;BMP280;37210;50.058;8.688;2022-11-20T08:36:41;99776.47;;;5.29
51149;BMP280;37210;50.058;8.688;2022-11-20T08:39:11;99703.06;;;4.68
51149;BMP280;37210;50.058;8.688;2022-11-20T08:41:40;99785.88;;;5.19
51149;BMP280;37210;50.058;8.688;2022-11-20T08:44:09;99792.84;;;5.23
51149;BMP280;37210;50.058;8.688;2022-11-20T08:46:39;99791.94;;;5.21
51149;BMP280;37210;50.058;8.688;2022-11-20T08:49:11;99798.03;;;5.26
51149;BMP280;37210;50.058;8.688;2022-11-20T08:51:41;99699.91;;;4.91
51149;BMP280;37210;50.058;8.688;2022-11-20T08:54:09;99805.75;;;5.22
51149;BMP280;37210;50.058;8.688;2022-11-20T08:56:38;99797.97;;;5.20
51149;BMP280;37210;50.058;8.688;2022-11-20T08:59:05;99800.47;;;5.16
51149;BMP280;37210;50.058;8.688;2022-11-20T09:01:38;99810.03;;;5.20
51149;BMP280;37210;50.058;8.688;2022-11-20T09:04:06;99784.69;;;5.01
51149;BMP280;37210;50.058;8.688;2022-11-20T09:06:41;99794.09;;;5.54
51149;BMP280;37210;50.058;8.688;2022-11-20T09:09:09;99799.13;;;5.42
51149;BMP280;37210;50.058;8.688;2022-11-20T09:11:37;99790.53;;;5.46
51149;BMP280;37210;50.058;8.688;2022-11-20T09:14:04;99786.34;;;5.57
51149;BMP280;37210;50.058;8.688;2022-11-20T09:16:32;99767.19;;;5.44
51149;BMP280;37210;50.058;8.688;2022-11-20T09:19:02;99799.38;;;5.60
51149;BMP280;37210;50.058;8.688;2022-11-20T09:21:30;99754.09;;;5.37
51149;BMP280;37210;50.058;8.688;2022-11-20T09:23:58;99798.63;;;5.70
51149;BMP280;37210;50.058;8.688;2022-11-20T09:26:29;99801.28;;;5.73
51149;BMP280;37210;50.058;8.688;2022-11-20T09:28:56;99791.66;;;5.67
51149;BMP280;37210;50.058;8.688;2022-11-20T09:31:25;99758.00;;;5.71
51149;BMP280;37210;50.058;8.688;2022-11-20T09:33:55;99754.53;;;5.70
51149;BMP280;37210;50.058;8.688;2022-11-20T09:36:23;99797.31;;;6.02
51149;BMP280;37210;50.058;8.688;2022-11-20T09:38:53;99772.31;;;6.10
51149;BMP280;37210;50.058;8.688;2022-11-20T09:41:36;99684.28;;;5.55
51149;BMP280;37210;50.058;8.688;2022-11-20T09:44:27;99791.47;;;6.21
51149;BMP280;37210;50.058;8.688;2022-11-20T09:47:22;99794.13;;;6.27
51149;BMP280;37210;50.058;8.688;2022-11-20T09:50:12;99769.72;;;6.12
51149;BMP280;37210;50.058;8.688;2022-11-20T09:53:04;99786.53;;;6.49
51149;BMP280;37210;50.058;8.688;2022-11-20T09:55:39;99787.38;;;6.49
51149;BMP280;37210;50.058;8.688;2022-11-20T10:01:08;99759.53;;;6.33
51149;BMP280;37210;50.058;8.688;2022-11-20T10:03:51;99783.22;;;6.68
51149;BMP280;37210;50.058;8.688;2022-11-20T10:06:32;99774.56;;;6.67
51149;BMP280;37210;50.058;8.688;2022-11-20T10:09:08;99782.38;;;6.70
51149;BMP280;37210;50.058;8.688;2022-11-20T10:11:57;99771.06;;;6.64
51149;BMP280;37210;50.058;8.688;2022-11-20T10:14:41;99729.25;;;6.35
51149;BMP280;37210;50.058;8.688;2022-11-20T10:17:25;99765.78;;;6.52
51149;BMP280;37210;50.058;8.688;2022-11-20T10:20:15;99767.56;;;6.60
51149;BMP280;37210;50.058;8.688;2022-11-20T10:22:55;99763.25;;;6.64
51149;BMP280;37210;50.058;8.688;2022-11-20T10:25:39;99756.38;;;6.69
51149;BMP280;37210;50.058;8.688;2022-11-20T10:28:21;99739.13;;;6.74
51149;BMP280;37210;50.058;8.688;2022-11-20T10:31:02;99678.19;;;6.37
51149;BMP280;37210;50.058;8.688;2022-11-20T10:33:34;99769.47;;;6.82
51149;BMP280;37210;50.058;8.688;2022-11-20T10:36:10;99691.28;;;6.47
51149;BMP280;37210;50.058;8.688;2022-11-20T10:38:47;99720.72;;;6.50
51149;BMP280;37210;50.058;8.688;2022-11-20T10:41:23;99762.50;;;6.75
51149;BMP280;37210;50.058;8.688;2022-11-20T10:44:03;99726.13;;;6.77
51149;BMP280;37210;50.058;8.688;2022-11-20T10:46:39;99754.63;;;6.66
51149;BMP280;37210;50.058;8.688;2022-11-20T10:49:15;99623.34;;;5.96
51149;BMP280;37210;50.058;8.688;2022-11-20T10:51:56;99692.19;;;6.54
51149;BMP280;37210;50.058;8.688;2022-11-20T10:54:39;99734.84;;;6.82
51149;BMP280;37210;50.058;8.688;2022-11-20T10:57:26;99717.41;;;6.69
51149;BMP280;37210;50.058;8.688;2022-11-20T11:00:10;99620.94;;;6.17
51149;BMP280;37210;50.058;8.688;2022-11-20T11:02:43;99740.00;;;6.79
51149;BMP280;37210;50.058;8.688;2022-11-20T11:05:32;99702.69;;;6.71
51149;BMP280;37210;50.058;8.688;2022-11-20T11:08:05;99734.09;;;7.04
51149;BMP280;37210;50.058;8.688;2022-11-20T11:10:46;99726.19;;;6.86
51149;BMP280;37210;50.058;8.688;2022-11-20T11:13:20;99731.38;;;6.84
51149;BMP280;37210;50.058;8.688;2022-11-20T11:15:50;99738.28;;;6.82
51149;BMP280;37210;50.058;8.688;2022-11-20T11:18:25;99712.22;;;6.67
51149;BMP280;37210;50.058;8.688;2022-11-20T11:20:55;99689.63;;;6.59
51149;BMP280;37210;50.058;8.688;2022-11-20T11:23:31;99682.72;;;6.61
51149;BMP280;37210;50.058;8.688;2022-11-20T11:26:03;99715.72;;;6.78
51149;BMP280;37210;50.058;8.688;2022-11-20T11:28:33;99718.31;;;6.75
51149;BMP280;37210;50.058;8.688;2022-11-20T11:31:00;99652.31;;;6.47
51149;BMP280;37210;50.058;8.688;2022-11-20T11:33:29;99713.19;;;6.86
51149;BMP280;37210;50.058;8.688;2022-11-20T11:36:00;99685.41;;;6.77
51149;BMP280;37210;50.058;8.688;2022-11-20T11:38:34;99702.84;;;6.90
51149;BMP280;37210;50.058;8.688;2022-11-20T11:41:06;99694.97;;;6.81
51149;BMP280;37210;50.058;8.688;2022-11-20T11:43:38;99703.69;;;6.91
51149;BMP280;37210;50.058;8.688;2022-11-20T11:46:27;99708.88;;;6.88
51149;BMP280;37210;50.058;8.688;2022-11-20T11:48:58;99649.78;;;6.57
51149;BMP280;37210;50.058;8.688;2022-11-20T11:51:34;99657.56;;;6.58
51149;BMP280;37210;50.058;8.688;2022-11-20T11:54:15;99698.56;;;6.98
51149;BMP280;37210;50.058;8.688;2022-11-20T11:56:49;99695.03;;;6.90
51149;BMP280;37210;50.058;8.688;2022-11-20T11:59:26;99679.38;;;6.81
51149;BMP280;37210;50.058;8.688;2022-11-20T12:02:00;99683.72;;;6.85
51149;BMP280;37210;50.058;8.688;2022-11-20T12:04:42;99675.09;;;6.89
51149;BMP280;37210;50.058;8.688;2022-11-20T12:07:15;99679.53;;;7.10
51149;BMP280;37210;50.058;8.688;2022-11-20T12:09:53;99668.31;;;7.20
51149;BMP280;37210;50.058;8.688;2022-11-20T12:12:31;99637.09;;;7.18
51149;BMP280;37210;50.058;8.688;2022-11-20T12:15:06;99607.47;;;6.85
51149;BMP280;37210;50.058;8.688;2022-11-20T12:17:36;99630.97;;;7.04
51149;BMP280;37210;50.058;8.688;2022-11-20T12:20:10;99656.16;;;7.16
51149;BMP280;37210;50.058;8.688;2022-11-20T12:22:45;99603.97;;;6.77
51149;BMP280;37210;50.058;8.688;2022-11-20T12:25:22;99648.31;;;7.08
51149;BMP280;37210;50.058;8.688;2022-11-20T12:28:15;99675.22;;;7.15
51149;BMP280;37210;50.058;8.688;2022-11-20T12:31:00;99665.72;;;7.24
51149;BMP280;37210;50.058;8.688;2022-11-20T12:36:52;99649.19;;;7.10
51149;BMP280;37210;50.058;8.688;2022-11-20T12:39:33;99632.72;;;7.07
51149;BMP280;37210;50.058;8.688;2022-11-20T12:48:36;99670.88;;;7.14
51149;BMP280;37210;50.058;8.688;2022-11-20T12:51:24;99653.56;;;7.19
51149;BMP280;37210;50.058;8.688;2022-11-20T12:54:29;99656.16;;;7.13
51149;BMP280;37210;50.058;8.688;2022-11-20T12:57:18;99642.28;;;7.15
51149;BMP280;37210;50.058;8.688;2022-11-20T13:00:02;99651.78;;;7.06
51149;BMP280;37210;50.058;8.688;2022-11-20T13:03:03;99632.66;;;6.90
51149;BMP280;37210;50.058;8.688;2022-11-20T13:05:51;99641.31;;;6.92
51149;BMP280;37210;50.058;8.688;2022-11-20T13:08:28;99607.47;;;6.82
51149;BMP280;37210;50.058;8.688;2022-11-20T13:11:03;99645.81;;;7.31
51149;BMP280;37210;50.058;8.688;2022-11-20T13:13:50;99634.44;;;7.08
51149;BMP280;37210;50.058;8.688;2022-11-20T13:16:40;99635.31;;;7.02
51149;BMP280;37210;50.058;8.688;2022-11-20T13:19:14;99627.53;;;7.07
51149;BMP280;37210;50.058;8.688;2022-11-20T13:21:45;99628.38;;;7.04
51149;BMP280;37210;50.058;8.688;2022-11-20T13:24:26;99598.00;;;6.99
51149;BMP280;37210;50.058;8.688;2022-11-20T13:27:01;99580.66;;;6.95
51149;BMP280;37210;50.058;8.688;2022-11-20T13:29:34;99623.25;;;7.28
51149;BMP280;37210;50.058;8.688;2022-11-20T13:32:04;99625.78;;;7.03
51149;BMP280;37210;50.058;8.688;2022-11-20T13:34:35;99571.94;;;6.79
51149;BMP280;37210;50.058;8.688;2022-11-20T13:37:03;99611.06;;;7.05
51149;BMP280;37210;50.058;8.688;2022-11-20T13:39:31;99618.03;;;7.22
51149;BMP280;37210;50.058;8.688;2022-11-20T13:42:02;99601.53;;;7.10
51149;BMP280;37210;50.058;8.688;2022-11-20T13:44:51;99590.31;;;7.24
51149;BMP280;37210;50.058;8.688;2022-11-20T13:47:23;99603.31;;;7.23
51149;BMP280;37210;50.058;8.688;2022-11-20T13:49:54;99578.09;;;7.05
51149;BMP280;37210;50.058;8.688;2022-11-20T13:52:39;99591.97;;;7.06
51149;BMP280;37210;50.058;8.688;2022-11-20T13:55:19;99583.28;;;7.05
51149;BMP280;37210;50.058;8.688;2022-11-20T13:58:02;99587.66;;;7.14
51149;BMP280;37210;50.058;8.688;2022-11-20T14:00:52;99586.78;;;7.13
51149;BMP280;37210;50.058;8.688;2022-11-20T14:03:25;99582.50;;;7.24
51149;BMP280;37210;50.058;8.688;2022-11-20T14:06:01;99599.00;;;7.43
51149;BMP280;37210;50.058;8.688;2022-11-20T14:08:36;99590.31;;;7.29
51149;BMP280;37210;50.058;8.688;2022-11-20T14:11:14;99533.88;;;7.01
51149;BMP280;37210;50.058;8.688;2022-11-20T14:13:56;99558.19;;;7.18
51149;BMP280;37210;50.058;8.688;2022-11-20T14:16:27;99559.06;;;7.20
51149;BMP280;37210;50.058;8.688;2022-11-20T14:18:57;99553.91;;;7.23
51149;BMP280;37210;50.058;8.688;2022-11-20T14:21:47;99554.78;;;7.33
51149;BMP280;37210;50.058;8.688;2022-11-20T14:24:19;99553.00;;;7.12
51149;BMP280;37210;50.058;8.688;2022-11-20T14:26:47;99560.81;;;7.22
51149;BMP280;37210;50.058;8.688;2022-11-20T14:29:21;99565.19;;;7.34
51149;BMP280;37210;50.058;8.688;2022-11-20T14:31:55;99559.13;;;7.38
51149;BMP280;37210;50.058;8.688;2022-11-20T14:34:28;99557.38;;;7.39
51149;BMP280;37210;50.058;8.688;2022-11-20T14:37:01;99555.66;;;7.36
51149;BMP280;37210;50.058;8.688;2022-11-20T14:39:33;99521.81;;;7.24
51149;BMP280;37210;50.058;8.688;2022-11-20T14:42:03;99540.03;;;7.39
51149;BMP280;37210;50.058;8.688;2022-11-20T14:44:42;99528.78;;;7.34
51149;BMP280;37210;50.058;8.688;2022-11-20T14:47:13;99530.47;;;7.20
51149;BMP280;37210;50.058;8.688;2022-11-20T14:49:44;99540.91;;;7.41
51149;BMP280;37210;50.058;8.688;2022-11-20T14:52:16;99505.31;;;7.04
51149;BMP280;37210;50.058;8.688;2022-11-20T14:54:45;99527.03;;;7.27
51149;BMP280;37210;50.058;8.688;2022-11-20T14:57:23;99535.72;;;7.38
51149;BMP280;37210;50.058;8.688;2022-11-20T15:00:07;99522.72;;;7.53
51149;BMP280;37210;50.058;8.688;2022-11-20T15:02:47;99533.13;;;7.55
51149;BMP280;37210;50.058;8.688;2022-11-20T15:05:17;99490.63;;;7.45